sensor_id;sensor_type;location;lat;lon;timestamp;P1;durP1;ratioP1;P2;durP2;ratioP2
19341;SDS011;9807;48.258;12.690;2024-02-26T00:00:31;17.70;;;11.07;;
19341;SDS011;9807;48.258;12.690;2024-02-26T00:02:57;15.70;;;9.97;;
19341;SDS011;9807;48.258;12.690;2024-02-26T00:05:22;19.53;;;13.07;;
19341;SDS011;9807;48.258;12.690;2024-02-26T00:07:48;16.63;;;10.97;;
19341;SDS011;9807;48.258;12.690;2024-02-26T00:10:14;18.83;;;12.13;;
19341;SDS011;9807;48.258;12.690;2024-02-26T00:12:40;15.23;;;10.43;;
19341;SDS011;9807;48.258;12.690;2024-02-26T00:15:06;15.33;;;10.50;;
19341;SDS011;9807;48.258;12.690;2024-02-26T00:17:33;17.53;;;11.73;;
19341;SDS011;9807;48.258;12.690;2024-02-26T00:19:58;12.57;;;9.03;;
19341;SDS011;9807;48.258;12.690;2024-02-26T00:22:25;15.80;;;10.03;;
19341;SDS011;9807;48.258;12.690;2024-02-26T00:24:51;20.53;;;11.97;;
19341;SDS011;9807;48.258;12.690;2024-02-26T00:27:17;16.63;;;10.73;;
19341;SDS011;9807;48.258;12.690;2024-02-26T00:29:42;18.53;;;11.43;;
19341;SDS011;9807;48.258;12.690;2024-02-26T00:32:09;14.63;;;9.67;;
19341;SDS011;9807;48.258;12.690;2024-02-26T00:34:35;15.27;;;10.10;;
19341;SDS011;9807;48.258;12.690;2024-02-26T00:37:01;15.33;;;10.47;;
19341;SDS011;9807;48.258;12.690;2024-02-26T00:39:27;13.17;;;8.87;;
19341;SDS011;9807;48.258;12.690;2024-02-26T00:41:53;14.47;;;9.00;;
19341;SDS011;9807;48.258;12.690;2024-02-26T00:44:18;13.00;;;9.00;;
19341;SDS011;9807;48.258;12.690;2024-02-26T00:46:44;14.80;;;9.73;;
19341;SDS011;9807;48.258;12.690;2024-02-26T00:49:10;15.37;;;10.20;;
19341;SDS011;9807;48.258;12.690;2024-02-26T00:51:36;16.57;;;10.17;;
19341;SDS011;9807;48.258;12.690;2024-02-26T00:54:01;14.00;;;9.73;;
19341;SDS011;9807;48.258;12.690;2024-02-26T00:56:27;14.10;;;9.47;;
19341;SDS011;9807;48.258;12.690;2024-02-26T00:58:53;16.40;;;9.93;;
19341;SDS011;9807;48.258;12.690;2024-02-26T01:01:19;18.00;;;11.10;;
19341;SDS011;9807;48.258;12.690;2024-02-26T01:03:45;13.57;;;9.03;;
19341;SDS011;9807;48.258;12.690;2024-02-26T01:06:10;16.00;;;10.57;;
19341;SDS011;9807;48.258;12.690;2024-02-26T01:08:36;16.93;;;10.57;;
19341;SDS011;9807;48.258;12.690;2024-02-26T01:11:02;23.33;;;13.73;;
19341;SDS011;9807;48.258;12.690;2024-02-26T01:13:28;15.07;;;9.60;;
19341;SDS011;9807;48.258;12.690;2024-02-26T01:15:54;14.17;;;9.07;;
19341;SDS011;9807;48.258;12.690;2024-02-26T01:18:20;13.70;;;8.63;;
19341;SDS011;9807;48.258;12.690;2024-02-26T01:20:46;16.00;;;10.63;;
19341;SDS011;9807;48.258;12.690;2024-02-26T01:23:12;14.10;;;8.83;;
19341;SDS011;9807;48.258;12.690;2024-02-26T01:25:38;15.50;;;9.23;;
19341;SDS011;9807;48.258;12.690;2024-02-26T01:28:04;13.73;;;8.70;;
19341;SDS011;9807;48.258;12.690;2024-02-26T01:30:30;16.87;;;10.60;;
19341;SDS011;9807;48.258;12.690;2024-02-26T01:32:56;14.27;;;9.53;;
19341;SDS011;9807;48.258;12.690;2024-02-26T01:35:22;15.00;;;9.73;;
19341;SDS011;9807;48.258;12.690;2024-02-26T01:37:48;13.03;;;9.03;;
19341;SDS011;9807;48.258;12.690;2024-02-26T01:40:14;14.63;;;9.30;;
19341;SDS011;9807;48.258;12.690;2024-02-26T01:42:44;15.90;;;11.03;;
19341;SDS011;9807;48.258;12.690;2024-02-26T01:45:14;12.57;;;8.63;;
19341;SDS011;9807;48.258;12.690;2024-02-26T01:47:46;13.13;;;8.83;;
19341;SDS011;9807;48.258;12.690;2024-02-26T01:50:14;14.97;;;10.20;;
19341;SDS011;9807;48.258;12.690;2024-02-26T01:52:40;13.60;;;9.30;;
19341;SDS011;9807;48.258;12.690;2024-02-26T01:55:06;13.63;;;8.53;;
19341;SDS011;9807;48.258;12.690;2024-02-26T01:57:36;14.83;;;9.47;;
19341;SDS011;9807;48.258;12.690;2024-02-26T02:00:01;18.97;;;11.50;;
19341;SDS011;9807;48.258;12.690;2024-02-26T02:02:31;15.00;;;8.93;;
19341;SDS011;9807;48.258;12.690;2024-02-26T02:04:56;12.83;;;9.00;;
19341;SDS011;9807;48.258;12.690;2024-02-26T02:07:22;14.73;;;9.57;;
19341;SDS011;9807;48.258;12.690;2024-02-26T02:09:49;15.40;;;9.30;;
19341;SDS011;9807;48.258;12.690;2024-02-26T02:12:15;15.53;;;10.10;;
19341;SDS011;9807;48.258;12.690;2024-02-26T02:14:41;12.93;;;8.67;;
19341;SDS011;9807;48.258;12.690;2024-02-26T02:17:06;12.07;;;8.37;;
19341;SDS011;9807;48.258;12.690;2024-02-26T02:19:32;13.93;;;9.90;;
19341;SDS011;9807;48.258;12.690;2024-02-26T02:21:58;13.47;;;9.03;;
19341;SDS011;9807;48.258;12.690;2024-02-26T02:24:24;14.87;;;8.80;;
19341;SDS011;9807;48.258;12.690;2024-02-26T02:26:49;13.53;;;8.90;;
19341;SDS011;9807;48.258;12.690;2024-02-26T02:29:16;13.53;;;8.77;;
19341;SDS011;9807;48.258;12.690;2024-02-26T02:31:42;12.73;;;8.70;;
19341;SDS011;9807;48.258;12.690;2024-02-26T02:34:08;14.47;;;8.70;;
19341;SDS011;9807;48.258;12.690;2024-02-26T02:36:48;15.73;;;9.30;;
19341;SDS011;9807;48.258;12.690;2024-02-26T02:39:17;14.00;;;9.10;;
19341;SDS011;9807;48.258;12.690;2024-02-26T02:41:42;14.33;;;8.87;;
19341;SDS011;9807;48.258;12.690;2024-02-26T02:44:09;16.20;;;10.07;;
19341;SDS011;9807;48.258;12.690;2024-02-26T02:46:36;13.23;;;9.20;;
19341;SDS011;9807;48.258;12.690;2024-02-26T02:49:02;13.43;;;9.00;;
19341;SDS011;9807;48.258;12.690;2024-02-26T02:51:27;19.83;;;12.73;;
19341;SDS011;9807;48.258;12.690;2024-02-26T02:53:53;16.27;;;10.00;;
19341;SDS011;9807;48.258;12.690;2024-02-26T02:56:19;12.87;;;8.67;;
19341;SDS011;9807;48.258;12.690;2024-02-26T02:58:44;14.37;;;9.73;;
19341;SDS011;9807;48.258;12.690;2024-02-26T03:01:10;12.80;;;8.73;;
19341;SDS011;9807;48.258;12.690;2024-02-26T03:03:38;17.17;;;11.20;;
19341;SDS011;9807;48.258;12.690;2024-02-26T03:06:04;15.90;;;10.50;;
19341;SDS011;9807;48.258;12.690;2024-02-26T03:08:30;15.37;;;9.40;;
19341;SDS011;9807;48.258;12.690;2024-02-26T03:10:55;14.37;;;9.47;;
19341;SDS011;9807;48.258;12.690;2024-02-26T03:13:23;13.33;;;8.73;;
19341;SDS011;9807;48.258;12.690;2024-02-26T03:15:49;28.30;;;13.73;;
19341;SDS011;9807;48.258;12.690;2024-02-26T03:18:15;18.20;;;13.00;;
19341;SDS011;9807;48.258;12.690;2024-02-26T03:20:41;14.10;;;9.20;;
19341;SDS011;9807;48.258;12.690;2024-02-26T03:23:07;13.10;;;9.10;;
19341;SDS011;9807;48.258;12.690;2024-02-26T03:25:36;12.57;;;8.43;;
19341;SDS011;9807;48.258;12.690;2024-02-26T03:28:02;24.63;;;11.50;;
19341;SDS011;9807;48.258;12.690;2024-02-26T03:30:28;13.40;;;9.50;;
19341;SDS011;9807;48.258;12.690;2024-02-26T03:32:53;11.77;;;8.43;;
19341;SDS011;9807;48.258;12.690;2024-02-26T03:35:19;16.53;;;12.17;;
19341;SDS011;9807;48.258;12.690;2024-02-26T03:37:45;15.97;;;10.93;;
19341;SDS011;9807;48.258;12.690;2024-02-26T03:40:12;12.13;;;8.60;;
19341;SDS011;9807;48.258;12.690;2024-02-26T03:42:39;11.47;;;8.00;;
19341;SDS011;9807;48.258;12.690;2024-02-26T03:45:05;13.33;;;9.57;;
19341;SDS011;9807;48.258;12.690;2024-02-26T03:47:31;11.80;;;8.20;;
19341;SDS011;9807;48.258;12.690;2024-02-26T03:49:57;12.40;;;8.33;;
19341;SDS011;9807;48.258;12.690;2024-02-26T03:52:24;10.87;;;8.03;;
19341;SDS011;9807;48.258;12.690;2024-02-26T03:54:49;10.83;;;7.63;;
19341;SDS011;9807;48.258;12.690;2024-02-26T03:57:15;11.10;;;8.13;;
19341;SDS011;9807;48.258;12.690;2024-02-26T03:59:41;11.40;;;7.80;;
19341;SDS011;9807;48.258;12.690;2024-02-26T04:02:06;11.80;;;8.13;;
19341;SDS011;9807;48.258;12.690;2024-02-26T04:04:35;9.90;;;6.90;;
19341;SDS011;9807;48.258;12.690;2024-02-26T04:07:01;11.40;;;7.60;;
19341;SDS011;9807;48.258;12.690;2024-02-26T04:09:27;12.07;;;7.77;;
19341;SDS011;9807;48.258;12.690;2024-02-26T04:11:52;10.73;;;7.30;;
19341;SDS011;9807;48.258;12.690;2024-02-26T04:14:18;11.33;;;8.03;;
19341;SDS011;9807;48.258;12.690;2024-02-26T04:16:44;13.37;;;8.60;;
19341;SDS011;9807;48.258;12.690;2024-02-26T04:19:10;12.83;;;8.13;;
19341;SDS011;9807;48.258;12.690;2024-02-26T04:21:35;12.00;;;8.17;;
19341;SDS011;9807;48.258;12.690;2024-02-26T04:24:01;9.87;;;7.10;;
19341;SDS011;9807;48.258;12.690;2024-02-26T04:26:27;10.90;;;8.30;;
19341;SDS011;9807;48.258;12.690;2024-02-26T04:28:54;12.30;;;8.53;;
19341;SDS011;9807;48.258;12.690;2024-02-26T04:31:20;12.07;;;7.77;;
19341;SDS011;9807;48.258;12.690;2024-02-26T04:33:45;12.20;;;8.57;;
19341;SDS011;9807;48.258;12.690;2024-02-26T04:36:14;10.57;;;7.63;;
19341;SDS011;9807;48.258;12.690;2024-02-26T04:38:41;12.43;;;8.00;;
19341;SDS011;9807;48.258;12.690;2024-02-26T04:41:10;11.00;;;8.20;;
19341;SDS011;9807;48.258;12.690;2024-02-26T04:43:36;11.77;;;7.80;;
19341;SDS011;9807;48.258;12.690;2024-02-26T04:46:10;12.87;;;8.57;;
19341;SDS011;9807;48.258;12.690;2024-02-26T04:48:36;13.20;;;9.30;;
19341;SDS011;9807;48.258;12.690;2024-02-26T04:51:03;11.60;;;8.10;;
19341;SDS011;9807;48.258;12.690;2024-02-26T04:53:29;11.27;;;8.33;;
19341;SDS011;9807;48.258;12.690;2024-02-26T04:55:55;11.67;;;8.70;;
19341;SDS011;9807;48.258;12.690;2024-02-26T04:58:21;14.07;;;9.50;;
19341;SDS011;9807;48.258;12.690;2024-02-26T05:00:46;14.63;;;10.23;;
19341;SDS011;9807;48.258;12.690;2024-02-26T05:03:12;12.27;;;9.23;;
19341;SDS011;9807;48.258;12.690;2024-02-26T05:05:40;12.03;;;8.73;;
19341;SDS011;9807;48.258;12.690;2024-02-26T05:08:05;10.80;;;7.80;;
19341;SDS011;9807;48.258;12.690;2024-02-26T05:10:32;11.93;;;8.53;;
19341;SDS011;9807;48.258;12.690;2024-02-26T05:12:58;13.43;;;8.77;;
19341;SDS011;9807;48.258;12.690;2024-02-26T05:15:24;11.13;;;8.40;;
19341;SDS011;9807;48.258;12.690;2024-02-26T05:17:50;11.53;;;7.97;;
19341;SDS011;9807;48.258;12.690;2024-02-26T05:20:15;12.17;;;8.77;;
19341;SDS011;9807;48.258;12.690;2024-02-26T05:22:42;9.53;;;6.93;;
19341;SDS011;9807;48.258;12.690;2024-02-26T05:25:07;11.03;;;7.60;;
19341;SDS011;9807;48.258;12.690;2024-02-26T05:27:36;11.17;;;8.10;;
19341;SDS011;9807;48.258;12.690;2024-02-26T05:30:01;11.70;;;8.43;;
19341;SDS011;9807;48.258;12.690;2024-02-26T05:32:28;11.97;;;8.47;;
19341;SDS011;9807;48.258;12.690;2024-02-26T05:34:57;11.53;;;8.10;;
19341;SDS011;9807;48.258;12.690;2024-02-26T05:37:22;11.57;;;8.57;;
19341;SDS011;9807;48.258;12.690;2024-02-26T05:39:48;11.20;;;7.40;;
19341;SDS011;9807;48.258;12.690;2024-02-26T05:42:14;10.23;;;7.37;;
19341;SDS011;9807;48.258;12.690;2024-02-26T05:44:39;11.37;;;7.13;;
19341;SDS011;9807;48.258;12.690;2024-02-26T05:47:05;10.60;;;7.97;;
19341;SDS011;9807;48.258;12.690;2024-02-26T05:49:31;10.47;;;7.53;;
19341;SDS011;9807;48.258;12.690;2024-02-26T05:51:57;9.80;;;7.20;;
19341;SDS011;9807;48.258;12.690;2024-02-26T05:54:23;10.27;;;7.07;;
19341;SDS011;9807;48.258;12.690;2024-02-26T05:56:49;10.03;;;7.33;;
19341;SDS011;9807;48.258;12.690;2024-02-26T05:59:15;10.40;;;7.63;;
19341;SDS011;9807;48.258;12.690;2024-02-26T06:01:41;9.80;;;7.30;;
19341;SDS011;9807;48.258;12.690;2024-02-26T06:04:06;11.33;;;7.30;;
19341;SDS011;9807;48.258;12.690;2024-02-26T06:06:32;10.17;;;7.23;;
19341;SDS011;9807;48.258;12.690;2024-02-26T06:08:58;9.07;;;6.93;;
19341;SDS011;9807;48.258;12.690;2024-02-26T06:11:23;9.70;;;7.40;;
19341;SDS011;9807;48.258;12.690;2024-02-26T06:13:49;9.83;;;7.27;;
19341;SDS011;9807;48.258;12.690;2024-02-26T06:16:15;9.77;;;7.50;;
19341;SDS011;9807;48.258;12.690;2024-02-26T06:18:41;8.87;;;6.50;;
19341;SDS011;9807;48.258;12.690;2024-02-26T06:21:10;9.43;;;6.83;;
19341;SDS011;9807;48.258;12.690;2024-02-26T06:23:36;10.27;;;7.47;;
19341;SDS011;9807;48.258;12.690;2024-02-26T06:26:02;9.70;;;6.87;;
19341;SDS011;9807;48.258;12.690;2024-02-26T06:28:28;9.00;;;6.50;;
19341;SDS011;9807;48.258;12.690;2024-02-26T06:30:55;7.33;;;5.80;;
19341;SDS011;9807;48.258;12.690;2024-02-26T06:33:21;8.03;;;6.20;;
19341;SDS011;9807;48.258;12.690;2024-02-26T06:35:47;11.30;;;8.20;;
19341;SDS011;9807;48.258;12.690;2024-02-26T06:38:12;10.63;;;7.77;;
19341;SDS011;9807;48.258;12.690;2024-02-26T06:40:38;9.93;;;7.10;;
19341;SDS011;9807;48.258;12.690;2024-02-26T06:43:04;9.47;;;6.97;;
19341;SDS011;9807;48.258;12.690;2024-02-26T06:45:31;8.73;;;7.10;;
19341;SDS011;9807;48.258;12.690;2024-02-26T06:47:57;9.30;;;7.60;;
19341;SDS011;9807;48.258;12.690;2024-02-26T06:50:23;13.93;;;9.23;;
19341;SDS011;9807;48.258;12.690;2024-02-26T06:52:48;12.53;;;8.37;;
19341;SDS011;9807;48.258;12.690;2024-02-26T06:55:14;9.63;;;7.53;;
19341;SDS011;9807;48.258;12.690;2024-02-26T06:57:40;10.60;;;7.27;;
19341;SDS011;9807;48.258;12.690;2024-02-26T07:00:12;11.07;;;7.83;;
19341;SDS011;9807;48.258;12.690;2024-02-26T07:02:39;10.00;;;7.37;;
19341;SDS011;9807;48.258;12.690;2024-02-26T07:05:05;8.43;;;6.40;;
19341;SDS011;9807;48.258;12.690;2024-02-26T07:07:31;9.20;;;6.87;;
19341;SDS011;9807;48.258;12.690;2024-02-26T07:09:57;12.00;;;7.90;;
19341;SDS011;9807;48.258;12.690;2024-02-26T07:12:23;11.73;;;7.77;;
19341;SDS011;9807;48.258;12.690;2024-02-26T07:14:49;15.07;;;8.73;;
19341;SDS011;9807;48.258;12.690;2024-02-26T07:17:15;13.10;;;8.97;;
19341;SDS011;9807;48.258;12.690;2024-02-26T07:19:41;9.57;;;6.80;;
19341;SDS011;9807;48.258;12.690;2024-02-26T07:22:07;10.53;;;6.67;;
19341;SDS011;9807;48.258;12.690;2024-02-26T07:24:34;10.87;;;7.30;;
19341;SDS011;9807;48.258;12.690;2024-02-26T07:27:00;10.30;;;6.90;;
19341;SDS011;9807;48.258;12.690;2024-02-26T07:29:26;13.10;;;8.80;;
19341;SDS011;9807;48.258;12.690;2024-02-26T07:31:52;12.43;;;8.13;;
19341;SDS011;9807;48.258;12.690;2024-02-26T07:34:17;14.17;;;9.40;;
19341;SDS011;9807;48.258;12.690;2024-02-26T07:36:43;11.20;;;7.40;;
19341;SDS011;9807;48.258;12.690;2024-02-26T07:39:09;17.10;;;10.23;;
19341;SDS011;9807;48.258;12.690;2024-02-26T07:41:36;11.90;;;7.97;;
19341;SDS011;9807;48.258;12.690;2024-02-26T07:44:03;13.53;;;8.90;;
19341;SDS011;9807;48.258;12.690;2024-02-26T07:46:29;15.97;;;10.10;;
19341;SDS011;9807;48.258;12.690;2024-02-26T07:48:55;15.17;;;10.63;;
19341;SDS011;9807;48.258;12.690;2024-02-26T07:51:20;14.90;;;10.10;;
19341;SDS011;9807;48.258;12.690;2024-02-26T07:53:47;13.70;;;9.37;;
19341;SDS011;9807;48.258;12.690;2024-02-26T07:56:13;14.57;;;9.40;;
19341;SDS011;9807;48.258;12.690;2024-02-26T07:58:39;16.77;;;11.07;;
19341;SDS011;9807;48.258;12.690;2024-02-26T08:01:04;15.53;;;10.00;;
19341;SDS011;9807;48.258;12.690;2024-02-26T08:03:30;13.03;;;9.40;;
19341;SDS011;9807;48.258;12.690;2024-02-26T08:05:56;17.00;;;10.27;;
19341;SDS011;9807;48.258;12.690;2024-02-26T08:08:22;12.57;;;8.37;;
19341;SDS011;9807;48.258;12.690;2024-02-26T08:10:48;14.40;;;8.93;;
19341;SDS011;9807;48.258;12.690;2024-02-26T08:13:14;16.23;;;9.43;;
19341;SDS011;9807;48.258;12.690;2024-02-26T08:15:40;13.97;;;9.43;;
19341;SDS011;9807;48.258;12.690;2024-02-26T08:18:06;16.87;;;9.93;;
19341;SDS011;9807;48.258;12.690;2024-02-26T08:20:32;14.23;;;9.70;;
19341;SDS011;9807;48.258;12.690;2024-02-26T08:22:58;13.53;;;9.30;;
19341;SDS011;9807;48.258;12.690;2024-02-26T08:25:24;22.73;;;11.97;;
19341;SDS011;9807;48.258;12.690;2024-02-26T08:27:51;13.37;;;9.40;;
19341;SDS011;9807;48.258;12.690;2024-02-26T08:30:17;15.80;;;10.07;;
19341;SDS011;9807;48.258;12.690;2024-02-26T08:32:43;19.03;;;12.40;;
19341;SDS011;9807;48.258;12.690;2024-02-26T08:35:10;14.97;;;9.77;;
19341;SDS011;9807;48.258;12.690;2024-02-26T08:37:37;14.50;;;9.03;;
19341;SDS011;9807;48.258;12.690;2024-02-26T08:40:02;15.73;;;10.10;;
19341;SDS011;9807;48.258;12.690;2024-02-26T08:42:29;14.73;;;9.00;;
19341;SDS011;9807;48.258;12.690;2024-02-26T08:44:55;12.50;;;8.70;;
19341;SDS011;9807;48.258;12.690;2024-02-26T08:47:20;17.73;;;10.40;;
19341;SDS011;9807;48.258;12.690;2024-02-26T08:49:46;22.27;;;11.70;;
19341;SDS011;9807;48.258;12.690;2024-02-26T08:52:12;12.63;;;8.40;;
19341;SDS011;9807;48.258;12.690;2024-02-26T08:54:38;12.90;;;8.73;;
19341;SDS011;9807;48.258;12.690;2024-02-26T08:57:05;12.87;;;8.57;;
19341;SDS011;9807;48.258;12.690;2024-02-26T08:59:31;12.00;;;8.40;;
19341;SDS011;9807;48.258;12.690;2024-02-26T09:01:57;11.57;;;8.00;;
19341;SDS011;9807;48.258;12.690;2024-02-26T09:04:22;12.93;;;7.97;;
19341;SDS011;9807;48.258;12.690;2024-02-26T09:06:48;13.77;;;8.27;;
19341;SDS011;9807;48.258;12.690;2024-02-26T09:09:14;21.40;;;9.83;;
19341;SDS011;9807;48.258;12.690;2024-02-26T09:11:39;13.43;;;8.67;;
19341;SDS011;9807;48.258;12.690;2024-02-26T09:14:05;12.00;;;7.77;;
19341;SDS011;9807;48.258;12.690;2024-02-26T09:16:31;11.47;;;7.30;;
19341;SDS011;9807;48.258;12.690;2024-02-26T09:18:57;14.40;;;8.47;;
19341;SDS011;9807;48.258;12.690;2024-02-26T09:21:22;13.23;;;7.40;;
19341;SDS011;9807;48.258;12.690;2024-02-26T09:23:52;14.03;;;7.90;;
19341;SDS011;9807;48.258;12.690;2024-02-26T09:26:18;12.93;;;7.53;;
19341;SDS011;9807;48.258;12.690;2024-02-26T09:28:44;11.73;;;6.83;;
19341;SDS011;9807;48.258;12.690;2024-02-26T09:31:10;13.47;;;7.17;;
19341;SDS011;9807;48.258;12.690;2024-02-26T09:33:36;12.17;;;7.17;;
19341;SDS011;9807;48.258;12.690;2024-02-26T09:36:02;12.03;;;7.20;;
19341;SDS011;9807;48.258;12.690;2024-02-26T09:38:29;11.13;;;7.13;;
19341;SDS011;9807;48.258;12.690;2024-02-26T09:40:56;10.10;;;6.63;;
19341;SDS011;9807;48.258;12.690;2024-02-26T09:43:23;10.23;;;7.13;;
19341;SDS011;9807;48.258;12.690;2024-02-26T09:45:53;8.43;;;6.37;;
19341;SDS011;9807;48.258;12.690;2024-02-26T09:48:19;11.23;;;6.57;;
19341;SDS011;9807;48.258;12.690;2024-02-26T09:50:45;12.10;;;6.90;;
19341;SDS011;9807;48.258;12.690;2024-02-26T09:53:12;18.50;;;7.57;;
19341;SDS011;9807;48.258;12.690;2024-02-26T09:55:40;9.60;;;6.90;;
19341;SDS011;9807;48.258;12.690;2024-02-26T09:58:06;10.33;;;6.87;;
19341;SDS011;9807;48.258;12.690;2024-02-26T10:00:32;10.70;;;5.80;;
19341;SDS011;9807;48.258;12.690;2024-02-26T10:03:04;12.47;;;5.27;;
19341;SDS011;9807;48.258;12.690;2024-02-26T10:05:31;7.70;;;5.00;;
19341;SDS011;9807;48.258;12.690;2024-02-26T10:07:59;7.70;;;4.87;;
19341;SDS011;9807;48.258;12.690;2024-02-26T10:10:27;7.80;;;5.20;;
19341;SDS011;9807;48.258;12.690;2024-02-26T10:12:54;7.27;;;5.07;;
19341;SDS011;9807;48.258;12.690;2024-02-26T10:15:20;7.33;;;5.10;;
19341;SDS011;9807;48.258;12.690;2024-02-26T10:17:46;7.03;;;4.67;;
19341;SDS011;9807;48.258;12.690;2024-02-26T10:20:12;5.93;;;4.63;;
19341;SDS011;9807;48.258;12.690;2024-02-26T10:22:43;8.30;;;4.90;;
19341;SDS011;9807;48.258;12.690;2024-02-26T10:25:09;7.43;;;4.40;;
19341;SDS011;9807;48.258;12.690;2024-02-26T10:27:35;6.37;;;4.60;;
19341;SDS011;9807;48.258;12.690;2024-02-26T10:30:05;7.07;;;4.37;;
19341;SDS011;9807;48.258;12.690;2024-02-26T10:32:45;9.53;;;4.53;;
19341;SDS011;9807;48.258;12.690;2024-02-26T10:35:14;7.47;;;4.50;;
19341;SDS011;9807;48.258;12.690;2024-02-26T10:37:42;5.63;;;4.07;;
19341;SDS011;9807;48.258;12.690;2024-02-26T10:40:14;6.40;;;3.90;;
19341;SDS011;9807;48.258;12.690;2024-02-26T10:42:44;6.40;;;3.80;;
19341;SDS011;9807;48.258;12.690;2024-02-26T10:45:11;7.17;;;4.53;;
19341;SDS011;9807;48.258;12.690;2024-02-26T10:47:37;6.03;;;3.87;;
19341;SDS011;9807;48.258;12.690;2024-02-26T10:50:05;5.33;;;4.00;;
19341;SDS011;9807;48.258;12.690;2024-02-26T10:52:32;6.47;;;3.60;;
19341;SDS011;9807;48.258;12.690;2024-02-26T10:55:02;6.63;;;4.33;;
19341;SDS011;9807;48.258;12.690;2024-02-26T10:57:37;6.90;;;3.80;;
19341;SDS011;9807;48.258;12.690;2024-02-26T11:00:05;5.03;;;3.60;;
19341;SDS011;9807;48.258;12.690;2024-02-26T11:02:33;5.37;;;3.70;;
19341;SDS011;9807;48.258;12.690;2024-02-26T11:05:02;6.63;;;3.60;;
19341;SDS011;9807;48.258;12.690;2024-02-26T11:07:31;4.73;;;3.80;;
19341;SDS011;9807;48.258;12.690;2024-02-26T11:09:59;5.80;;;3.60;;
19341;SDS011;9807;48.258;12.690;2024-02-26T11:12:25;6.17;;;3.93;;
19341;SDS011;9807;48.258;12.690;2024-02-26T11:14:53;6.27;;;3.53;;
19341;SDS011;9807;48.258;12.690;2024-02-26T11:17:23;6.70;;;4.83;;
19341;SDS011;9807;48.258;12.690;2024-02-26T11:19:56;4.20;;;3.60;;
19341;SDS011;9807;48.258;12.690;2024-02-26T11:22:24;8.10;;;4.40;;
19341;SDS011;9807;48.258;12.690;2024-02-26T11:24:53;5.27;;;4.17;;
19341;SDS011;9807;48.258;12.690;2024-02-26T11:27:23;4.60;;;3.57;;
19341;SDS011;9807;48.258;12.690;2024-02-26T11:29:52;5.30;;;3.80;;
19341;SDS011;9807;48.258;12.690;2024-02-26T11:32:19;7.47;;;4.23;;
19341;SDS011;9807;48.258;12.690;2024-02-26T11:34:46;7.27;;;4.40;;
19341;SDS011;9807;48.258;12.690;2024-02-26T11:37:12;6.87;;;4.03;;
19341;SDS011;9807;48.258;12.690;2024-02-26T11:39:40;7.57;;;3.83;;
19341;SDS011;9807;48.258;12.690;2024-02-26T11:42:06;5.90;;;4.10;;
19341;SDS011;9807;48.258;12.690;2024-02-26T11:44:35;5.97;;;4.43;;
19341;SDS011;9807;48.258;12.690;2024-02-26T11:47:14;6.47;;;4.40;;
19341;SDS011;9807;48.258;12.690;2024-02-26T11:49:48;5.33;;;3.40;;
19341;SDS011;9807;48.258;12.690;2024-02-26T11:52:14;6.77;;;3.30;;
19341;SDS011;9807;48.258;12.690;2024-02-26T11:57:20;4.53;;;3.10;;
19341;SDS011;9807;48.258;12.690;2024-02-26T12:05:10;5.30;;;3.07;;
19341;SDS011;9807;48.258;12.690;2024-02-26T12:07:54;4.23;;;3.10;;
19341;SDS011;9807;48.258;12.690;2024-02-26T12:10:32;7.20;;;3.03;;
19341;SDS011;9807;48.258;12.690;2024-02-26T12:13:14;5.87;;;3.60;;
19341;SDS011;9807;48.258;12.690;2024-02-26T12:18:09;5.87;;;3.60;;
19341;SDS011;9807;48.258;12.690;2024-02-26T12:20:40;7.47;;;3.43;;
19341;SDS011;9807;48.258;12.690;2024-02-26T12:23:06;4.80;;;3.40;;
19341;SDS011;9807;48.258;12.690;2024-02-26T12:25:32;4.40;;;2.80;;
19341;SDS011;9807;48.258;12.690;2024-02-26T12:27:58;6.70;;;3.30;;
19341;SDS011;9807;48.258;12.690;2024-02-26T12:30:24;6.07;;;3.97;;
19341;SDS011;9807;48.258;12.690;2024-02-26T12:32:52;6.03;;;3.40;;
19341;SDS011;9807;48.258;12.690;2024-02-26T12:35:22;6.87;;;3.40;;
19341;SDS011;9807;48.258;12.690;2024-02-26T12:37:49;4.30;;;2.90;;
19341;SDS011;9807;48.258;12.690;2024-02-26T12:40:16;6.70;;;3.20;;
19341;SDS011;9807;48.258;12.690;2024-02-26T12:42:42;5.60;;;3.30;;
19341;SDS011;9807;48.258;12.690;2024-02-26T12:45:10;4.23;;;3.07;;
19341;SDS011;9807;48.258;12.690;2024-02-26T12:47:41;4.63;;;3.03;;
19341;SDS011;9807;48.258;12.690;2024-02-26T12:50:09;4.27;;;2.97;;
19341;SDS011;9807;48.258;12.690;2024-02-26T12:52:37;5.07;;;2.90;;
19341;SDS011;9807;48.258;12.690;2024-02-26T12:55:05;3.07;;;2.70;;
19341;SDS011;9807;48.258;12.690;2024-02-26T12:57:38;3.90;;;2.90;;
19341;SDS011;9807;48.258;12.690;2024-02-26T13:00:05;4.00;;;2.97;;
19341;SDS011;9807;48.258;12.690;2024-02-26T13:02:35;6.87;;;2.83;;
19341;SDS011;9807;48.258;12.690;2024-02-26T13:05:05;5.30;;;3.07;;
19341;SDS011;9807;48.258;12.690;2024-02-26T13:07:33;4.47;;;2.83;;
19341;SDS011;9807;48.258;12.690;2024-02-26T13:09:59;3.83;;;2.53;;
19341;SDS011;9807;48.258;12.690;2024-02-26T13:12:26;3.07;;;2.43;;
19341;SDS011;9807;48.258;12.690;2024-02-26T13:15:01;4.50;;;2.60;;
19341;SDS011;9807;48.258;12.690;2024-02-26T13:17:31;11.27;;;2.80;;
19341;SDS011;9807;48.258;12.690;2024-02-26T13:19:57;5.37;;;2.50;;
19341;SDS011;9807;48.258;12.690;2024-02-26T13:22:22;3.03;;;2.30;;
19341;SDS011;9807;48.258;12.690;2024-02-26T13:24:55;3.37;;;2.50;;
19341;SDS011;9807;48.258;12.690;2024-02-26T13:27:22;3.37;;;2.30;;
19341;SDS011;9807;48.258;12.690;2024-02-26T13:29:49;2.37;;;1.90;;
19341;SDS011;9807;48.258;12.690;2024-02-26T13:32:27;2.80;;;2.00;;
19341;SDS011;9807;48.258;12.690;2024-02-26T13:35:06;4.83;;;2.07;;
19341;SDS011;9807;48.258;12.690;2024-02-26T13:37:38;3.70;;;2.00;;
19341;SDS011;9807;48.258;12.690;2024-02-26T13:40:08;5.70;;;2.30;;
19341;SDS011;9807;48.258;12.690;2024-02-26T13:42:36;3.63;;;2.17;;
19341;SDS011;9807;48.258;12.690;2024-02-26T13:45:03;3.87;;;2.00;;
19341;SDS011;9807;48.258;12.690;2024-02-26T13:47:33;7.07;;;3.27;;
19341;SDS011;9807;48.258;12.690;2024-02-26T13:49:59;2.57;;;1.83;;
19341;SDS011;9807;48.258;12.690;2024-02-26T13:52:25;3.97;;;2.03;;
19341;SDS011;9807;48.258;12.690;2024-02-26T13:54:51;2.23;;;1.70;;
19341;SDS011;9807;48.258;12.690;2024-02-26T13:57:17;2.57;;;1.93;;
19341;SDS011;9807;48.258;12.690;2024-02-26T13:59:44;2.47;;;2.00;;
19341;SDS011;9807;48.258;12.690;2024-02-26T14:02:10;3.10;;;2.10;;
19341;SDS011;9807;48.258;12.690;2024-02-26T14:04:36;3.70;;;2.20;;
19341;SDS011;9807;48.258;12.690;2024-02-26T14:07:04;6.07;;;2.10;;
19341;SDS011;9807;48.258;12.690;2024-02-26T14:09:30;3.37;;;2.10;;
19341;SDS011;9807;48.258;12.690;2024-02-26T14:11:57;5.50;;;1.83;;
19341;SDS011;9807;48.258;12.690;2024-02-26T14:14:23;2.27;;;1.63;;
19341;SDS011;9807;48.258;12.690;2024-02-26T14:16:50;2.40;;;1.63;;
19341;SDS011;9807;48.258;12.690;2024-02-26T14:19:16;2.73;;;1.83;;
19341;SDS011;9807;48.258;12.690;2024-02-26T14:21:42;2.30;;;1.60;;
19341;SDS011;9807;48.258;12.690;2024-02-26T14:24:07;2.53;;;1.60;;
19341;SDS011;9807;48.258;12.690;2024-02-26T14:26:35;3.50;;;1.50;;
19341;SDS011;9807;48.258;12.690;2024-02-26T14:29:01;3.53;;;1.50;;
19341;SDS011;9807;48.258;12.690;2024-02-26T14:31:26;7.17;;;1.57;;
19341;SDS011;9807;48.258;12.690;2024-02-26T14:33:52;1.80;;;1.53;;
19341;SDS011;9807;48.258;12.690;2024-02-26T14:36:19;2.10;;;1.50;;
19341;SDS011;9807;48.258;12.690;2024-02-26T14:38:46;3.43;;;1.77;;
19341;SDS011;9807;48.258;12.690;2024-02-26T14:41:12;1.80;;;1.60;;
19341;SDS011;9807;48.258;12.690;2024-02-26T14:43:37;2.40;;;1.60;;
19341;SDS011;9807;48.258;12.690;2024-02-26T14:46:03;4.10;;;1.70;;